Search for airport 
image banner adimage banner adimage banner ad
image banner ad

07N - Bermudian Valley Airpark

Located in Kralltown, United States

ICAO - 07N, IATA -

Data provided by Airmate  

General information

Coordinates: N40°1'0" W77°0'14"
Elevation is 470 feet MSL.
Magnetic variation is -10° East
Rated:
View ratings:
[VIEW]
View others Airports in Pennsylvania

Operational data

Special qualification required
Current time UTC:
Current local time:
Weather at : KTHV - York ( 16 km )
METAR: KTHV 091253Z AUTO 00000KT 10SM OVC090 09/02 A3010 RMK AO2 SLP196 T00890022
View NOTAMs / SUP AIP / TFR affecting this airport [VIEW]
Communications frequencies: [VIEW]

Runways:

RWY identifierQFULength (ft)Width (ft)SurfaceLDA (ft)
162200100GRASS
342200100GRASS

Airport contact information

Address: Kralltown United States

Satellite view of 07N